• Join FlightAware (Why Join?)
  • Login
  • US Flag 
09:49AM EDT


 

Airport Tracker/Info


-or-


 

Live Flight TrackerFlight Track Log ✈ ASA124 ✈ 03-Aug-2014 ✈ PAFA / FAI - KSEA

Flight Track Log - Related Links

Times and Time Zones

All times are in EDT time to prevent confusion due to time zone crossing. See the ASA124 flight status page for this flight to view local times or setup timezone preferences in your user account.

Time Position Orientation Groundspeed Altitude Reporting Facility
EDT Latitude Longitude Course Direction KTS MPH feet Rate Location/Type
11:04AM 64.7333 -147.7500 123° Southeast 240 276 4,300  Level Anchorage Center
11:05AM 64.6833 -147.6000 128° Southeast 270 311 6,700 2,520 Climbing Anchorage Center
11:06AM 64.6333 -147.4500 128° Southeast 280 322 9,400 2,100 Climbing Anchorage Center
11:07AM 64.6000 -147.2833 115° Southeast 310 357 11,000 1,440 Climbing Anchorage Center
11:08AM 64.3873 -146.5195 123° Southeast  Level FlightAware Approximate
11:08AM 64.5500 -147.0833 120° Southeast 360 414 12,300  Level Anchorage Center
11:09AM 64.3218 -146.2909 123° Southeast  Level FlightAware Approximate
11:09AM 64.4833 -146.8833 128° Southeast 380 437 14,100  Level Anchorage Center
11:10AM 64.4333 -146.6667 118° Southeast 400 460 16,600 2,340 Climbing Anchorage Center
11:11AM 64.3667 -146.4500 125° Southeast 410 472 18,800 2,100 Climbing Anchorage Center
11:12AM 64.3000 -146.2167 123° Southeast 420 483 20,900 1,860 Climbing Anchorage Center
11:13AM 64.2333 -146.0000 125° Southeast 430 495 22,600 1,620 Climbing Anchorage Center
11:14AM 64.1667 -145.7500 121° Southeast 440 506 24,200 1,380 Climbing Anchorage Center
11:16AM 64.0167 -145.2667 125° Southeast 460 529 26,900 1,260 Climbing Anchorage Center
11:17AM 63.9500 -145.0333 123° Southeast 470 541 28,100 1,380 Climbing Anchorage Center
11:18AM 63.8667 -144.7833 127° Southeast 460 529 29,800 1,500 Climbing Anchorage Center
11:19AM 63.8000 -144.5500 123° Southeast 460 529 31,100 1,260 Climbing Anchorage Center
11:20AM 63.7333 -144.3000 121° Southeast 460 529 32,400 1,260 Climbing Anchorage Center
11:21AM 63.6500 -144.0833 131° Southeast 450 518 33,700 1,140 Climbing Anchorage Center
11:22AM 63.5833 -143.8667 125° Southeast 460 529 34,700 600 Climbing Anchorage Center
11:23AM 63.5167 -143.6333 123° Southeast 460 529 35,000 120 Climbing Anchorage Center
11:24AM 63.4333 -143.4000 129° Southeast 460 529 35,000  Level Anchorage Center
11:25AM 63.3667 -143.1833 124° Southeast 440 506 35,000  Level Anchorage Center
11:26AM 63.3000 -142.9500 122° Southeast 460 529 35,000  Level Anchorage Center
11:46AM 61.5333 -139.3000 148° Southeast 440 506 35,000  Level Anchorage Center
11:47AM 61.5378 -139.3187 140° Southeast  Level FlightAware Approximate
11:47AM 61.4333 -139.1500 144° Southeast 440 506 35,000  Level Anchorage Center
11:48AM 61.4459 -139.1597 140° Southeast  Level FlightAware Approximate
11:48AM 61.3500 -138.9833 136° Southeast 440 506 35,000  Level Anchorage Center
11:49AM 61.3539 -139.0017 141° Southeast  Level FlightAware Approximate
11:49AM 61.2333 -138.8500 151° Southeast 440 506 35,000  Level Anchorage Center
11:50AM 61.2535 -138.8624 148° Southeast  Level FlightAware Approximate
11:50AM 61.1333 -138.7167 147° Southeast 440 506 35,000  Level Anchorage Center
11:51AM 61.1525 -138.7314 148° Southeast  Level FlightAware Approximate
11:51AM 61.0333 -138.5833 147° Southeast 430 495 35,000  Level Anchorage Center
11:52AM 61.0513 -138.6012 148° Southeast  Level FlightAware Approximate
11:52AM 60.9333 -138.4500 147° Southeast 440 506 35,000  Level Anchorage Center
11:53AM 60.8333 -138.3167 147° Southeast 430 495 35,000  Level Anchorage Center
11:54AM 60.7333 -138.2000 150° Southeast 430 495 35,000  Level Anchorage Center
11:55AM 60.6167 -138.0667 151° Southeast 430 495 35,000  Level Anchorage Center
11:56AM 60.5167 -137.9333 147° Southeast 430 495 35,000  Level Anchorage Center
11:57AM 60.4167 -137.8167 150° Southeast 430 495 35,000  Level Anchorage Center
11:58AM 60.3167 -137.6833 147° Southeast 440 506 35,000  Level Anchorage Center
11:59AM 60.2167 -137.5500 146° Southeast 440 506 35,000  Level Anchorage Center
12:00PM 60.1000 -137.4333 153° Southeast 430 495 35,000  Level Anchorage Center
12:01PM 60.0000 -137.3000 146° Southeast 440 506 35,000  Level Anchorage Center
12:02PM 59.9000 -137.1833 150° Southeast 440 506 35,000  Level Anchorage Center
12:03PM 59.8000 -137.0500 146° Southeast 440 506 35,000  Level Anchorage Center
12:04PM 59.6833 -136.9333 153° Southeast 440 506 35,000  Level Anchorage Center
12:05PM 59.5833 -136.8167 149° Southeast 430 495 35,000  Level Anchorage Center
12:06PM 59.4833 -136.7000 149° Southeast 430 495 35,000  Level Anchorage Center
12:07PM 59.3667 -136.5667 150° Southeast 440 506 35,000  Level Anchorage Center
12:08PM 59.2667 -136.4500 149° Southeast 450 518 35,000  Level Anchorage Center
12:09PM 59.1667 -136.3333 149° Southeast 440 506 35,000  Level Anchorage Center
12:10PM 59.0500 -136.2167 153° Southeast 440 506 35,000  Level Anchorage Center
12:11PM 58.9500 -136.1000 149° Southeast 430 495 35,000  Level Anchorage Center
12:12PM 58.8500 -135.9833 149° Southeast 440 506 35,000  Level Anchorage Center
12:13PM 58.7333 -135.8667 153° Southeast 440 506 35,000  Level Anchorage Center
12:14PM 58.6333 -135.7500 149° Southeast 440 506 35,000  Level Anchorage Center
12:15PM 58.5333 -135.6333 149° Southeast 440 506 35,000  Level Anchorage Center
12:16PM 58.4167 -135.5167 152° Southeast 450 518 35,000  Level Anchorage Center
12:17PM 58.3000 -135.4000 152° Southeast 450 518 35,000  Level Anchorage Center
12:18PM 58.2000 -135.2833 148° Southeast 450 518 35,000  Level Anchorage Center
12:19PM 58.1000 -135.1333 142° Southeast 450 518 35,000  Level Anchorage Center
12:20PM 58.0000 -134.9667 139° Southeast 460 529 35,000  Level Anchorage Center
12:21PM 57.9000 -134.8167 141° Southeast 460 529 35,000  Level Anchorage Center
12:22PM 57.8167 -134.6500 133° Southeast 450 518 35,000  Level Anchorage Center
12:23PM 57.7167 -134.5000 141° Southeast 450 518 35,000  Level Anchorage Center
12:24PM 57.6167 -134.3500 141° Southeast 450 518 35,000  Level Anchorage Center
12:25PM 57.5333 -134.2000 136° Southeast 450 518 35,000  Level Anchorage Center
12:26PM 57.4333 -134.0500 141° Southeast 450 518 35,000  Level Anchorage Center
12:27PM 57.3333 -133.9000 141° Southeast 450 518 35,000  Level Anchorage Center
12:28PM 57.2500 -133.7500 136° Southeast 450 518 35,000  Level Anchorage Center
12:29PM 57.1333 -133.5833 142° Southeast 460 529 35,000  Level Anchorage Center
12:30PM 57.0500 -133.4500 139° Southeast 450 518 35,000  Level Anchorage Center
12:31PM 56.9500 -133.2833 138° Southeast 450 518 35,000  Level Anchorage Center
12:32PM 56.8500 -133.1500 144° Southeast 460 529 35,000  Level Anchorage Center
12:33PM 56.7500 -133.0000 141° Southeast 450 518 35,000  Level Anchorage Center
12:34PM 56.6667 -132.8500 135° Southeast 450 518 35,000 360 Level Anchorage Center
12:35PM 56.5500 -132.6833 142° Southeast 460 529 35,800 720 Climbing Anchorage Center
12:36PM 56.4500 -132.5500 144° Southeast 460 529 36,500 600 Climbing Anchorage Center
12:37PM 56.3500 -132.4000 140° Southeast 450 518 37,000 240 Climbing Anchorage Center
12:38PM 56.2667 -132.2667 138° Southeast 460 529 37,000  Level Anchorage Center
12:39PM 56.1500 -132.1000 141° Southeast 460 529 37,000  Level Anchorage Center
12:40PM 56.0667 -131.9667 138° Southeast 460 529 37,000  Level Anchorage Center
12:41PM 55.9667 -131.8167 140° Southeast 460 529 37,000  Level Anchorage Center
12:42PM 55.8667 -131.6833 143° Southeast 460 529 37,000  Level Anchorage Center
12:43PM 55.7500 -131.5333 144° Southeast 460 529 37,000  Level Anchorage Center
12:44PM 55.6667 -131.4000 138° Southeast 460 529 37,000  Level Anchorage Center
12:46PM 55.4500 -131.1167 143° Southeast 460 529 37,000  Level Anchorage Center
12:47PM 55.3500 -130.9667 140° Southeast 460 529 37,000 -420 Level Anchorage Center
12:48PM 55.2500 -130.8333 143° Southeast 470 541 36,200 -900 Descending Anchorage Center
12:49PM 55.1500 -130.6833 139° Southeast 470 541 35,200 -420 Descending Anchorage Center
12:51PM 54.9333 -130.4167 141° Southeast 470 541 35,000 -120 Descending Anchorage Center
12:52PM 54.8667 -130.3833 164° South 470 541 35,000  Level Vancouver Center
12:53PM 54.7833 -130.2167 131° Southeast 470 541 35,000  Level Vancouver Center
12:54PM 54.6667 -130.0833 147° Southeast 470 541 35,000  Level Vancouver Center
12:55PM 54.5667 -129.9500 142° Southeast 470 541 35,000  Level Vancouver Center
12:56PM 54.4667 -129.8333 146° Southeast 470 541 35,000  Level Vancouver Center
12:57PM 54.3500 -129.7000 146° Southeast 470 541 35,000  Level Vancouver Center
12:58PM 54.2500 -129.5667 142° Southeast 470 541 35,000  Level Vancouver Center
12:59PM 54.1333 -129.4167 143° Southeast 470 541 35,000  Level Vancouver Center
01:00PM 54.0333 -129.2833 142° Southeast 470 541 35,000  Level Vancouver Center
01:01PM 53.9333 -129.1500 142° Southeast 470 541 35,000  Level Vancouver Center
01:02PM 53.8333 -129.0333 145° Southeast 480 552 35,000  Level Vancouver Center
01:03PM 53.7167 -128.9000 146° Southeast 470 541 35,000  Level Vancouver Center
01:04PM 53.6167 -128.7500 138° Southeast 480 552 35,000  Level Vancouver Center
01:05PM 53.5167 -128.6333 145° Southeast 480 552 35,000  Level Vancouver Center
01:06PM 53.4000 -128.5000 146° Southeast 480 552 35,000  Level Vancouver Center
01:07PM 53.3000 -128.3833 145° Southeast 480 552 35,000  Level Vancouver Center
01:08PM 53.2000 -128.2333 138° Southeast 470 541 35,000  Level Vancouver Center
01:09PM 53.0833 -128.1000 146° Southeast 480 552 35,000  Level Vancouver Center
01:10PM 52.9667 -127.9833 149° Southeast 480 552 35,000  Level Vancouver Center
01:11PM 52.8667 -127.8667 145° Southeast 480 552 35,000  Level Vancouver Center
01:12PM 52.7500 -127.7167 142° Southeast 480 552 35,000  Level Vancouver Center
01:13PM 52.6333 -127.6000 149° Southeast 480 552 35,000  Level Vancouver Center
01:14PM 52.5167 -127.4500 142° Southeast 480 552 35,000  Level Vancouver Center
01:15PM 52.4333 -127.3333 139° Southeast 480 552 35,000  Level Vancouver Center
01:16PM 52.3167 -127.2167 149° Southeast 480 552 35,000  Level Vancouver Center
01:17PM 52.2000 -127.1000 148° Southeast 480 552 35,000  Level Vancouver Center
01:18PM 52.1000 -126.9833 144° Southeast 480 552 35,000  Level Vancouver Center
01:19PM 51.9667 -126.8333 145° Southeast 480 552 35,000  Level Vancouver Center
01:20PM 51.8667 -126.7167 144° Southeast 480 552 35,000  Level Vancouver Center
01:21PM 51.7667 -126.6000 144° Southeast 480 552 35,000  Level Vancouver Center
01:22PM 51.6500 -126.4833 148° Southeast 480 552 35,000  Level Vancouver Center
01:23PM 51.5333 -126.3500 145° Southeast 480 552 35,000  Level Vancouver Center
01:24PM 51.4333 -126.2333 144° Southeast 480 552 35,000  Level Vancouver Center
01:25PM 51.3167 -126.1167 148° Southeast 490 564 35,000  Level Vancouver Center
01:26PM 51.2000 -125.9833 144° Southeast 490 564 35,000  Level Vancouver Center
01:27PM 51.0833 -125.8667 148° Southeast 480 552 35,000  Level Vancouver Center
01:28PM 50.9833 -125.7667 148° Southeast 480 552 35,000  Level Vancouver Center
01:29PM 50.8833 -125.6167 137° Southeast 480 552 35,000  Level Vancouver Center
01:30PM 50.7667 -125.5167 152° Southeast 480 552 35,000  Level Vancouver Center
01:31PM 50.6500 -125.4000 148° Southeast 480 552 35,000  Level Vancouver Center
01:32PM 50.5333 -125.3000 151° Southeast 480 552 35,000  Level Vancouver Center
01:33PM 50.4167 -125.1667 144° Southeast 480 552 35,000  Level Vancouver Center
01:34PM 50.3167 -125.0500 143° Southeast 480 552 35,000  Level Vancouver Center
01:35PM 50.2000 -124.9500 151° Southeast 480 552 35,000  Level Vancouver Center
01:36PM 50.0833 -124.8333 147° Southeast 480 552 35,000  Level Vancouver Center
01:37PM 49.9667 -124.7000 144° Southeast 480 552 35,000  Level Vancouver Center
01:38PM 49.8500 -124.6000 151° Southeast 480 552 35,000  Level Vancouver Center
01:39PM 49.7500 -124.5000 147° Southeast 480 552 35,000  Level Vancouver Center
01:40PM 49.6333 -124.3667 143° Southeast 480 552 35,000  Level Vancouver Center
01:41PM 49.5167 -124.2667 151° Southeast 480 552 35,000  Level Vancouver Center
01:42PM 49.4000 -124.1667 151° Southeast 480 552 35,000  Level Vancouver Center
01:43PM 49.3000 -124.0500 143° Southeast 480 552 35,000  Level Vancouver Center
01:44PM 49.1833 -123.9500 151° Southeast 480 552 35,000  Level Vancouver Center
01:45PM 49.0667 -123.8167 143° Southeast 480 552 35,000  Level Vancouver Center
01:46PM 48.9667 -123.7167 147° Southeast 480 552 35,000 -180 Level Vancouver Center
01:47PM 48.8500 -123.6167 151° Southeast 480 552 34,700 -1,020 Descending Vancouver Center
01:48PM 48.7333 -123.5167 151° Southeast 480 552 33,000 -2,040 Descending Vancouver Center
01:49PM 48.6167 -123.4000 147° Southeast 470 541 30,700 -2,100 Descending Vancouver Center
01:50PM 48.5167 -123.3167 151° Southeast 460 529 28,900 3,240 Descending Vancouver Center
01:51PM 47.7500 -116.4000 97° East 410 472 36,000 -2,160 Climbing Vancouver Center
01:52PM 48.3353 -123.1194 280° West 420 483 24,500 -5,460 Descending Seattle Center
01:53PM 48.2392 -123.0311 149° Southeast 412 474 22,500 -2,040 Descending Seattle Center
01:53PM 48.1956 -122.9944 151° Southeast 396 456 21,600 -1,980 Descending Seattle Center
01:54PM 48.1464 -122.9467 147° Southeast 398 458 20,500 -1,920 Descending Seattle Center
01:55PM 48.0694 -122.8775 149° Southeast 378 435 18,900 -1,860 Descending Seattle Center
01:55PM 48.0569 -122.8661 149° Southeast 383 441 18,600 -1,740 Descending Seattle Center
01:56PM 47.9675 -122.7878 150° Southeast 367 422 17,000 -1,800 Descending Seattle Center
01:57PM 47.8844 -122.7114 148° Southeast 348 400 15,200 -1,800 Descending Seattle Center
01:58PM 47.8097 -122.6433 149° Southeast 342 394 13,600 -1,740 Descending Seattle Center
01:58PM 47.7917 -122.6272 149° Southeast 339 390 13,200 -1,620 Descending Seattle Center
01:59PM 47.7272 -122.5700 149° Southeast 330 380 12,000 -1,320 Descending Seattle Center
01:59PM 47.7128 -122.5564 148° Southeast 335 386 11,900 -1,200 Descending Seattle Center
02:00PM 47.6358 -122.4886 149° Southeast 303 349 10,500 -480 Descending Seattle Center
02:01PM 47.5847 -122.4444 150° Southeast 282 325 11,100 240 Climbing Seattle Center
02:01PM 47.5664 -122.4358 162° South 287 330 10,800 -840 Descending Seattle Center
02:02PM 47.5122 -122.4483 189° South 247 284 10,300 -720 Descending Seattle Center
02:02PM 47.4983 -122.4528 192° South 255 293 10,100 -1,200 Descending Seattle Center
02:03PM 47.4381 -122.4628 186° South 244 281 9,000 -1,320 Descending Seattle Center
02:03PM 47.4269 -122.4611 174° South 244 281 8,800 -1,200 Descending Seattle Center
02:04PM 47.3744 -122.4650 183° South 245 282 7,900 -1,080 Descending Seattle Center
02:04PM 47.3603 -122.4636 176° South 243 280 7,700 -1,020 Descending Seattle Center
02:05PM 47.3078 -122.4653 181° South 237 273 6,900 -1,200 Descending Seattle Center
02:05PM 47.2897 -122.4650 179° South 237 273 6,500 -1,200 Descending Seattle Center
02:06PM 47.2450 -122.4539 170° South 236 272 5,700 -1,080 Descending Seattle Center
02:06PM 47.2372 -122.4289 115° Southeast 233 268 5,400 -1,020 Descending Seattle Center
02:07PM 47.2364 -122.3675 91° East 224 258 4,700 -1,020 Descending Seattle Center
02:07PM 47.2461 -122.3431 60° Northeast 223 257 4,400 -1,200 Descending Seattle Center
02:08PM 47.2867 -122.3203 21° North 204 235 3,500 -1,380 Descending Seattle Center
02:08PM 47.3061 -122.3192 North 218 251 3,000 -840 Descending Seattle Center
02:09PM 47.3372 -122.3186 North 165 190 2,700 -780 Descending Seattle Center
02:09PM 47.3511 -122.3189 359° North 167 192 2,200 -1,140 Descending Seattle Center
02:10PM 47.3794 -122.3181 North 146 168 1,600 -900 Descending Seattle Center
02:10PM 47.3936 -122.3183 359° North 155 178 1,300 -900 Descending Seattle Center
02:11PM 47.4222 -122.3208 357° North 154 177 700 -900 Descending Seattle Center
02:11PM 47.4403 -122.3186 North 155 178 400 -300 Descending Seattle Center
02:12PM 47.4819 -122.3197 359° North 156 180 300 -120 Descending Seattle Center
02:14PM 47.4499 -122.3118 217° Southwest  Level Estimated